• Join FlightAware (Why Join?)
  • Login
  • US Flag 
04:43PM EST


 

Airport Tracker/Info


-or-


 

Live Flight TrackerFlight Track Log ✈ N465TP ✈ 02-Feb-2014 ✈ KSLC - KCOD

Flight Track Log - Related Links

Times and Time Zones

All times are in EST time to prevent confusion due to time zone crossing. See the N465TP flight status page for this flight to view local times or setup timezone preferences in your user account.

Time Position Orientation Groundspeed Altitude Reporting Facility
EST Latitude Longitude Course Direction KTS MPH feet Rate Location/Type
07:34PM 40.7711 -111.9631 277° West 128 147 4,800  Level Salt Lake Center
07:35PM 40.7753 -112.0069 277° West 158 182 6,400 1,680 Climbing Salt Lake Center
07:35PM 40.7847 -112.0547 285° West 139 160 8,100 1,680 Climbing Salt Lake Center
07:36PM 40.7897 -112.0578 335° Northwest 142 163 8,400 1,560 Climbing Salt Lake Center
07:37PM 40.8169 -112.0978 312° West 162 186 9,700 1,440 Climbing Salt Lake Center
07:37PM 40.8183 -112.1003 306° West 156 180 9,900 1,440 Climbing Salt Lake Center
07:38PM 40.8458 -112.1361 315° West 169 194 11,200 1,440 Climbing Salt Lake Center
07:38PM 40.8506 -112.1414 320° Northwest 162 186 11,400 1,320 Climbing Salt Lake Center
07:39PM 40.9075 -112.1536 351° North 179 206 13,000 1,140 Climbing Salt Lake Center
07:40PM 40.9525 -112.1081 37° Northeast 204 235 13,800 480 Climbing Salt Lake Center
07:41PM 41.0069 -112.0581 35° Northeast 238 274 14,000 60 Climbing Salt Lake Center
07:42PM 41.0619 -112.0064 35° Northeast 239 275 14,000 60 Level Salt Lake Center
07:43PM 41.1181 -111.9544 35° Northeast 243 280 14,200 900 Climbing Salt Lake Center
07:44PM 41.1683 -111.9125 32° Northeast 209 241 15,900 1,500 Climbing Salt Lake Center
07:45PM 41.2142 -111.8758 31° Northeast 193 222 17,300 1,380 Climbing Salt Lake Center
07:46PM 41.2625 -111.8369 31° Northeast 200 230 18,800 1,380 Climbing Salt Lake Center
07:47PM 41.3128 -111.7967 31° Northeast 212 244 20,200 1,320 Climbing Salt Lake Center
07:48PM 41.3619 -111.7558 32° Northeast 210 242 21,500 1,260 Climbing Salt Lake Center
07:49PM 41.4144 -111.7136 31° Northeast 220 253 22,800 1,320 Climbing Salt Lake Center
07:50PM 41.4681 -111.6697 32° Northeast 224 258 24,200 1,080 Climbing Salt Lake Center
07:51PM 41.5228 -111.6250 31° Northeast 230 265 25,000 360 Climbing Salt Lake Center
07:52PM 41.5864 -111.5725 32° Northeast 267 307 25,000  Level Salt Lake Center
07:53PM 41.6667 -111.5050 32° Northeast 282 325 25,000  Level Salt Lake Center
07:54PM 41.7358 -111.4511 30° Northeast 287 330 25,000  Level Salt Lake Center
07:55PM 41.8044 -111.3944 32° Northeast 288 331 25,000  Level Salt Lake Center
07:56PM 41.8711 -111.3392 32° Northeast 284 327 25,000  Level Salt Lake Center
07:57PM 41.9389 -111.2817 32° Northeast 288 331 25,000  Level Salt Lake Center
07:58PM 42.0067 -111.2253 32° Northeast 288 331 25,000  Level Salt Lake Center
07:59PM 42.0753 -111.1686 32° Northeast 288 331 25,000  Level Salt Lake Center
08:00PM 42.1428 -111.1117 32° Northeast 287 330 25,000  Level Salt Lake Center
08:01PM 42.2103 -111.0547 32° Northeast 286 329 25,000  Level Salt Lake Center
08:02PM 42.2903 -110.9869 32° Northeast 284 327 25,000  Level Salt Lake Center
08:03PM 42.3572 -110.9308 32° Northeast 283 326 25,000  Level Salt Lake Center
08:04PM 42.4211 -110.8769 32° Northeast 283 326 25,000  Level Salt Lake Center
08:05PM 42.4847 -110.8244 31° Northeast 280 322 25,000  Level Salt Lake Center
08:06PM 42.5586 -110.7614 32° Northeast 280 322 25,000  Level Salt Lake Center
08:07PM 42.6228 -110.7058 32° Northeast 284 327 25,000  Level Salt Lake Center
08:08PM 42.6972 -110.6425 32° Northeast 283 326 25,000  Level Salt Lake Center
08:09PM 42.7658 -110.5819 33° Northeast 287 330 25,000  Level Salt Lake Center
08:10PM 42.8297 -110.5306 31° Northeast 282 325 25,000  Level Salt Lake Center
08:12PM 42.8936 -110.4736 33° Northeast 285 328 25,000  Level Salt Lake Center
08:13PM 42.9675 -110.4094 32° Northeast 284 327 25,000  Level Salt Lake Center
08:14PM 43.0317 -110.3550 32° Northeast 284 327 25,000  Level Salt Lake Center
08:15PM 43.0942 -110.3000 33° Northeast 282 325 25,000  Level Salt Lake Center
08:16PM 43.1675 -110.2372 32° Northeast 279 321 25,000  Level Salt Lake Center
08:17PM 43.2308 -110.1814 33° Northeast 282 325 25,000  Level Salt Lake Center
08:18PM 43.3011 -110.1181 33° Northeast 286 329 25,000  Level Salt Lake Center
08:19PM 43.3639 -110.0636 32° Northeast 281 323 25,000  Level Salt Lake Center
08:20PM 43.4378 -109.9983 33° Northeast 281 323 25,000  Level Salt Lake Center
08:21PM 43.5006 -109.9422 33° Northeast 281 323 25,000  Level Salt Lake Center
08:22PM 43.5664 -109.8833 33° Northeast 279 321 25,000  Level Salt Lake Center
08:23PM 43.6386 -109.8217 32° Northeast 276 318 25,000  Level Salt Lake Center
08:24PM 43.7006 -109.7653 33° Northeast 278 320 25,000  Level Salt Lake Center
08:25PM 43.7633 -109.7094 33° Northeast 279 321 25,000  Level Salt Lake Center
08:26PM 43.8367 -109.6428 33° Northeast 282 325 25,000  Level Salt Lake Center
08:27PM 43.8989 -109.5878 32° Northeast 279 321 25,000  Level Salt Lake Center
08:28PM 43.9722 -109.5219 33° Northeast 281 323 25,000 -60 Level Salt Lake Center
08:29PM 44.0389 -109.4622 33° Northeast 282 325 24,900 -1,080 Descending Salt Lake Center
08:30PM 44.1028 -109.4044 33° Northeast 277 319 22,800 -2,280 Descending Salt Lake Center
08:31PM 44.1669 -109.3472 33° Northeast 274 315 20,300 -2,460 Descending Salt Lake Center
08:32PM 44.2286 -109.2908 33° Northeast 269 310 17,800 -2,460 Descending Salt Lake Center
08:33PM 44.2847 -109.2403 33° Northeast 250 288 15,400 -2,400 Descending Salt Lake Center